Margate, Florida
Current Conditions -  °F | °C
As of 4:37 AM on Thursday 23 Oct 2014 (Local Time) from KFXE Reporting Station
Overcast Overcast  
Wind Chill: 76°   Ceiling: 1100
Heat Index: 76°   Visibility: 10mi
Dew Point: 72°   Wind: 0mph
Humidity: 87%   Direction: NA
Pressure: 29.89"   Gusts: NA
Location:  26.24°N, 80.2°W
Report Text: KFXE 230837Z 00000KT 10SM BKN011 BKN023 OVC039 24/22 A2989 RMK AO2 CIG 009V016 T02440222
Loading
Personal Weather Stations






























Interactive Weather Map
Tropical Storm Tracking
New forecast layout! Learn more

10-Day Weather Forecast

Advertisements
Track Severe Weather on mobile